sensor_id;sensor_type;location;lat;lon;timestamp;pressure;altitude;pressure_sealevel;temperature;humidity
23170;BME280;11753;43.144;24.714;2023-07-13T00:00:39;99504.13;;;24.46;97.52
23170;BME280;11753;43.144;24.714;2023-07-13T00:01:40;99500.22;;;24.37;97.53
23170;BME280;11753;43.144;24.714;2023-07-13T00:02:42;99506.72;;;24.41;97.72
23170;BME280;11753;43.144;24.714;2023-07-13T00:03:42;99511.63;;;24.44;97.86
23170;BME280;11753;43.144;24.714;2023-07-13T00:04:43;99515.69;;;24.47;97.58
23170;BME280;11753;43.144;24.714;2023-07-13T00:05:43;99508.69;;;24.46;97.34
23170;BME280;11753;43.144;24.714;2023-07-13T00:06:45;99509.00;;;24.32;98.04
23170;BME280;11753;43.144;24.714;2023-07-13T00:07:46;99505.16;;;24.28;98.17
23170;BME280;11753;43.144;24.714;2023-07-13T00:08:46;99510.41;;;24.35;97.67
23170;BME280;11753;43.144;24.714;2023-07-13T00:09:49;99491.31;;;24.20;97.73
23170;BME280;11753;43.144;24.714;2023-07-13T00:10:52;99506.31;;;24.32;97.97
23170;BME280;11753;43.144;24.714;2023-07-13T00:11:56;99508.78;;;24.34;97.64
23170;BME280;11753;43.144;24.714;2023-07-13T00:12:57;99511.47;;;24.34;97.55
23170;BME280;11753;43.144;24.714;2023-07-13T00:13:58;99508.84;;;24.39;97.33
23170;BME280;11753;43.144;24.714;2023-07-13T00:15:06;99493.28;;;24.24;97.21
23170;BME280;11753;43.144;24.714;2023-07-13T00:16:08;99486.81;;;24.25;97.40
23170;BME280;11753;43.144;24.714;2023-07-13T00:17:09;99481.88;;;24.17;97.31
23170;BME280;11753;43.144;24.714;2023-07-13T00:18:09;99481.13;;;24.22;97.50
23170;BME280;11753;43.144;24.714;2023-07-13T00:19:11;99500.09;;;24.32;97.54
23170;BME280;11753;43.144;24.714;2023-07-13T00:20:12;99510.47;;;24.40;96.98
23170;BME280;11753;43.144;24.714;2023-07-13T00:21:13;99485.19;;;24.24;97.16
23170;BME280;11753;43.144;24.714;2023-07-13T00:22:14;99493.53;;;24.23;97.30
23170;BME280;11753;43.144;24.714;2023-07-13T00:23:15;99480.00;;;24.17;97.18
23170;BME280;11753;43.144;24.714;2023-07-13T00:24:17;99488.53;;;24.14;97.61
23170;BME280;11753;43.144;24.714;2023-07-13T00:25:23;99494.66;;;24.27;97.34
23170;BME280;11753;43.144;24.714;2023-07-13T00:26:28;99491.41;;;24.25;97.87
23170;BME280;11753;43.144;24.714;2023-07-13T00:27:29;99485.84;;;24.14;97.62
23170;BME280;11753;43.144;24.714;2023-07-13T00:28:32;99478.41;;;24.22;97.21
23170;BME280;11753;43.144;24.714;2023-07-13T00:29:33;99490.34;;;24.26;96.96
23170;BME280;11753;43.144;24.714;2023-07-13T00:30:34;99508.66;;;24.29;97.20
23170;BME280;11753;43.144;24.714;2023-07-13T00:31:35;99487.25;;;24.17;97.16
23170;BME280;11753;43.144;24.714;2023-07-13T00:32:37;99485.84;;;24.14;97.06
23170;BME280;11753;43.144;24.714;2023-07-13T00:33:38;99495.88;;;24.19;97.22
23170;BME280;11753;43.144;24.714;2023-07-13T00:34:39;99489.28;;;24.10;97.15
23170;BME280;11753;43.144;24.714;2023-07-13T00:35:39;99496.44;;;24.21;96.79
23170;BME280;11753;43.144;24.714;2023-07-13T00:36:41;99486.59;;;24.10;97.27
23170;BME280;11753;43.144;24.714;2023-07-13T00:37:42;99489.28;;;24.10;97.71
23170;BME280;11753;43.144;24.714;2023-07-13T00:38:43;99497.09;;;24.11;97.57
23170;BME280;11753;43.144;24.714;2023-07-13T00:39:43;99508.91;;;24.10;97.69
23170;BME280;11753;43.144;24.714;2023-07-13T00:40:44;99494.66;;;24.10;97.53
23170;BME280;11753;43.144;24.714;2023-07-13T00:41:44;99484.72;;;24.10;96.96
23170;BME280;11753;43.144;24.714;2023-07-13T00:42:45;99462.31;;;23.88;97.08
23170;BME280;11753;43.144;24.714;2023-07-13T00:43:45;99493.59;;;24.11;97.02
23170;BME280;11753;43.144;24.714;2023-07-13T00:46:31;99495.94;;;24.07;97.59
23170;BME280;11753;43.144;24.714;2023-07-13T00:47:32;99477.47;;;23.94;97.89
23170;BME280;11753;43.144;24.714;2023-07-13T00:48:34;99482.03;;;23.94;98.33
23170;BME280;11753;43.144;24.714;2023-07-13T00:49:37;99477.38;;;23.89;98.30
23170;BME280;11753;43.144;24.714;2023-07-13T00:50:38;99478.34;;;23.83;98.61
23170;BME280;11753;43.144;24.714;2023-07-13T00:51:44;99481.03;;;23.83;98.36
23170;BME280;11753;43.144;24.714;2023-07-13T00:52:50;99470.19;;;23.78;98.42
23170;BME280;11753;43.144;24.714;2023-07-13T00:53:53;99468.09;;;23.80;98.19
23170;BME280;11753;43.144;24.714;2023-07-13T00:54:54;99473.78;;;23.83;98.35
23170;BME280;11753;43.144;24.714;2023-07-13T00:55:56;99460.19;;;23.73;98.62
23170;BME280;11753;43.144;24.714;2023-07-13T00:57:00;99486.16;;;23.84;98.62
23170;BME280;11753;43.144;24.714;2023-07-13T00:58:02;99479.81;;;23.74;98.82
23170;BME280;11753;43.144;24.714;2023-07-13T00:59:06;99456.84;;;23.66;98.72
23170;BME280;11753;43.144;24.714;2023-07-13T01:00:09;99468.09;;;23.80;98.49
23170;BME280;11753;43.144;24.714;2023-07-13T01:01:09;99469.53;;;23.71;98.51
23170;BME280;11753;43.144;24.714;2023-07-13T01:02:10;99473.19;;;23.65;98.83
23170;BME280;11753;43.144;24.714;2023-07-13T01:03:11;99461.06;;;23.62;98.26
23170;BME280;11753;43.144;24.714;2023-07-13T01:04:12;99462.69;;;23.63;98.46
23170;BME280;11753;43.144;24.714;2023-07-13T01:05:16;99485.66;;;23.71;98.33
23170;BME280;11753;43.144;24.714;2023-07-13T01:06:17;99469.22;;;23.67;98.18
23170;BME280;11753;43.144;24.714;2023-07-13T01:07:18;99469.06;;;23.74;98.07
23170;BME280;11753;43.144;24.714;2023-07-13T01:08:20;99464.16;;;23.71;97.48
23170;BME280;11753;43.144;24.714;2023-07-13T01:09:21;99464.31;;;23.64;97.84
23170;BME280;11753;43.144;24.714;2023-07-13T01:10:22;99458.63;;;23.60;98.29
23170;BME280;11753;43.144;24.714;2023-07-13T01:11:23;99480.88;;;23.73;98.15
23170;BME280;11753;43.144;24.714;2023-07-13T01:12:23;99482.09;;;23.82;97.69
23170;BME280;11753;43.144;24.714;2023-07-13T01:13:24;99479.72;;;23.69;97.29
23170;BME280;11753;43.144;24.714;2023-07-13T01:14:25;99472.72;;;23.68;97.65
23170;BME280;11753;43.144;24.714;2023-07-13T01:15:38;99483.06;;;23.76;97.08
23170;BME280;11753;43.144;24.714;2023-07-13T01:16:40;99471.66;;;23.69;97.09
23170;BME280;11753;43.144;24.714;2023-07-13T01:17:42;99467.34;;;23.68;97.29
23170;BME280;11753;43.144;24.714;2023-07-13T01:18:43;99484.69;;;23.77;97.25
23170;BME280;11753;43.144;24.714;2023-07-13T01:19:45;99480.22;;;23.66;97.33
23170;BME280;11753;43.144;24.714;2023-07-13T01:21:00;99485.00;;;23.64;97.78
23170;BME280;11753;43.144;24.714;2023-07-13T01:22:02;99456.31;;;23.52;97.63
23170;BME280;11753;43.144;24.714;2023-07-13T01:23:06;99477.19;;;23.62;97.64
23170;BME280;11753;43.144;24.714;2023-07-13T01:24:07;99440.59;;;23.44;97.20
23170;BME280;11753;43.144;24.714;2023-07-13T01:25:07;99473.09;;;23.59;97.33
23170;BME280;11753;43.144;24.714;2023-07-13T01:26:08;99476.47;;;23.67;97.69
23170;BME280;11753;43.144;24.714;2023-07-13T01:27:11;99484.38;;;23.73;97.47
23170;BME280;11753;43.144;24.714;2023-07-13T01:28:12;99492.09;;;23.70;97.41
23170;BME280;11753;43.144;24.714;2023-07-13T01:29:13;99480.13;;;23.60;97.16
23170;BME280;11753;43.144;24.714;2023-07-13T01:30:13;99472.97;;;23.66;97.02
23170;BME280;11753;43.144;24.714;2023-07-13T01:31:14;99460.06;;;23.51;96.72
23170;BME280;11753;43.144;24.714;2023-07-13T01:32:17;99485.81;;;23.64;96.59
23170;BME280;11753;43.144;24.714;2023-07-13T01:33:24;99462.94;;;23.50;96.83
23170;BME280;11753;43.144;24.714;2023-07-13T01:34:26;99466.19;;;23.64;96.49
23170;BME280;11753;43.144;24.714;2023-07-13T01:35:27;99487.53;;;23.70;96.62
23170;BME280;11753;43.144;24.714;2023-07-13T01:36:27;99461.75;;;23.57;96.19
23170;BME280;11753;43.144;24.714;2023-07-13T01:37:28;99441.03;;;23.41;96.04
23170;BME280;11753;43.144;24.714;2023-07-13T01:38:34;99476.84;;;23.58;96.10
23170;BME280;11753;43.144;24.714;2023-07-13T01:43:28;99471.50;;;23.47;95.91
23170;BME280;11753;43.144;24.714;2023-07-13T01:44:29;99480.53;;;23.57;95.94
23170;BME280;11753;43.144;24.714;2023-07-13T01:45:30;99464.16;;;23.42;96.37
23170;BME280;11753;43.144;24.714;2023-07-13T01:46:30;99467.44;;;23.44;96.11
23170;BME280;11753;43.144;24.714;2023-07-13T01:47:31;99469.88;;;23.46;95.90
23170;BME280;11753;43.144;24.714;2023-07-13T01:48:31;99470.13;;;23.44;96.15
23170;BME280;11753;43.144;24.714;2023-07-13T01:49:32;99470.69;;;23.46;95.56
23170;BME280;11753;43.144;24.714;2023-07-13T01:50:33;99470.28;;;23.38;96.41
23170;BME280;11753;43.144;24.714;2023-07-13T01:51:34;99458.63;;;23.32;96.58
23170;BME280;11753;43.144;24.714;2023-07-13T01:52:34;99450.22;;;23.28;96.14
23170;BME280;11753;43.144;24.714;2023-07-13T01:53:35;99479.81;;;23.45;96.12
23170;BME280;11753;43.144;24.714;2023-07-13T01:54:35;99467.97;;;23.29;96.36
23170;BME280;11753;43.144;24.714;2023-07-13T01:55:36;99435.59;;;23.08;96.01
23170;BME280;11753;43.144;24.714;2023-07-13T01:56:37;99460.44;;;23.15;96.67
23170;BME280;11753;43.144;24.714;2023-07-13T01:57:37;99477.41;;;23.32;96.14
23170;BME280;11753;43.144;24.714;2023-07-13T01:58:38;99472.44;;;23.24;96.75
23170;BME280;11753;43.144;24.714;2023-07-13T01:59:39;99459.00;;;23.24;96.59
23170;BME280;11753;43.144;24.714;2023-07-13T02:00:39;99459.47;;;23.21;96.69
23170;BME280;11753;43.144;24.714;2023-07-13T02:01:39;99444.13;;;23.04;96.49
23170;BME280;11753;43.144;24.714;2023-07-13T02:02:40;99460.91;;;23.12;96.61
23170;BME280;11753;43.144;24.714;2023-07-13T02:03:40;99438.66;;;22.99;96.33
23170;BME280;11753;43.144;24.714;2023-07-13T02:04:41;99439.69;;;22.98;96.57
23170;BME280;11753;43.144;24.714;2023-07-13T02:05:41;99460.91;;;23.12;96.30
23170;BME280;11753;43.144;24.714;2023-07-13T02:06:42;99427.69;;;23.01;95.65
23170;BME280;11753;43.144;24.714;2023-07-13T02:07:43;99480.72;;;23.22;95.90
23170;BME280;11753;43.144;24.714;2023-07-13T02:08:43;99477.22;;;23.22;95.79
23170;BME280;11753;43.144;24.714;2023-07-13T02:09:44;99469.53;;;23.14;96.12
23170;BME280;11753;43.144;24.714;2023-07-13T02:10:44;99475.09;;;23.24;95.56
23170;BME280;11753;43.144;24.714;2023-07-13T02:11:45;99468.81;;;23.18;95.65
23170;BME280;11753;43.144;24.714;2023-07-13T02:12:45;99463.03;;;23.10;95.70
23170;BME280;11753;43.144;24.714;2023-07-13T02:13:46;99457.09;;;23.08;95.91
23170;BME280;11753;43.144;24.714;2023-07-13T02:14:46;99480.94;;;23.21;95.72
23170;BME280;11753;43.144;24.714;2023-07-13T02:15:50;99472.81;;;23.16;95.55
23170;BME280;11753;43.144;24.714;2023-07-13T02:16:51;99463.47;;;23.06;96.08
23170;BME280;11753;43.144;24.714;2023-07-13T02:17:51;99481.91;;;23.15;95.84
23170;BME280;11753;43.144;24.714;2023-07-13T02:18:52;99474.44;;;23.17;95.84
23170;BME280;11753;43.144;24.714;2023-07-13T02:19:53;99480.25;;;23.14;95.96
23170;BME280;11753;43.144;24.714;2023-07-13T02:20:54;99441.31;;;22.99;95.33
23170;BME280;11753;43.144;24.714;2023-07-13T02:21:54;99446.38;;;22.84;96.03
23170;BME280;11753;43.144;24.714;2023-07-13T02:22:55;99451.72;;;22.84;96.25
23170;BME280;11753;43.144;24.714;2023-07-13T02:23:55;99458.28;;;22.88;96.00
23170;BME280;11753;43.144;24.714;2023-07-13T02:24:57;99472.03;;;22.92;96.38
23170;BME280;11753;43.144;24.714;2023-07-13T02:25:59;99460.50;;;22.91;96.43
23170;BME280;11753;43.144;24.714;2023-07-13T02:27:00;99457.25;;;22.89;96.69
23170;BME280;11753;43.144;24.714;2023-07-13T02:28:01;99462.59;;;22.89;96.31
23170;BME280;11753;43.144;24.714;2023-07-13T02:29:01;99480.56;;;23.00;96.71
23170;BME280;11753;43.144;24.714;2023-07-13T02:30:02;99474.59;;;22.98;95.63
23170;BME280;11753;43.144;24.714;2023-07-13T02:32:31;99494.56;;;23.02;96.31
23170;BME280;11753;43.144;24.714;2023-07-13T02:33:31;99488.50;;;22.95;96.45
23170;BME280;11753;43.144;24.714;2023-07-13T02:34:32;99475.91;;;22.96;96.20
23170;BME280;11753;43.144;24.714;2023-07-13T02:35:32;99466.34;;;22.88;95.95
23170;BME280;11753;43.144;24.714;2023-07-13T02:36:33;99476.38;;;22.81;96.07
23170;BME280;11753;43.144;24.714;2023-07-13T02:37:33;99472.44;;;22.72;96.93
23170;BME280;11753;43.144;24.714;2023-07-13T02:38:34;99477.41;;;22.80;96.58
23170;BME280;11753;43.144;24.714;2023-07-13T02:39:36;99489.28;;;22.84;96.79
23170;BME280;11753;43.144;24.714;2023-07-13T02:40:36;99486.16;;;22.99;96.65
23170;BME280;11753;43.144;24.714;2023-07-13T02:41:38;99477.75;;;22.84;96.44
23170;BME280;11753;43.144;24.714;2023-07-13T02:42:39;99469.81;;;22.77;96.58
23170;BME280;11753;43.144;24.714;2023-07-13T02:43:40;99475.47;;;22.87;96.42
23170;BME280;11753;43.144;24.714;2023-07-13T02:44:40;99471.16;;;22.86;95.88
23170;BME280;11753;43.144;24.714;2023-07-13T02:49:33;99498.97;;;22.85;96.16
23170;BME280;11753;43.144;24.714;2023-07-13T02:50:33;99488.03;;;22.75;96.58
23170;BME280;11753;43.144;24.714;2023-07-13T02:51:34;99475.56;;;22.69;96.75
23170;BME280;11753;43.144;24.714;2023-07-13T02:52:34;99479.75;;;22.76;96.23
23170;BME280;11753;43.144;24.714;2023-07-13T02:53:35;99491.56;;;22.87;96.17
23170;BME280;11753;43.144;24.714;2023-07-13T02:54:36;99480.19;;;22.85;95.52
23170;BME280;11753;43.144;24.714;2023-07-13T02:55:36;99488.88;;;22.87;95.41
23170;BME280;11753;43.144;24.714;2023-07-13T02:56:37;99478.47;;;22.79;95.53
23170;BME280;11753;43.144;24.714;2023-07-13T02:57:39;99481.72;;;22.81;95.02
23170;BME280;11753;43.144;24.714;2023-07-13T02:58:39;99484.88;;;22.78;95.38
23170;BME280;11753;43.144;24.714;2023-07-13T02:59:40;99453.41;;;22.62;95.69
23170;BME280;11753;43.144;24.714;2023-07-13T03:00:40;99490.84;;;22.80;96.17
23170;BME280;11753;43.144;24.714;2023-07-13T03:01:41;99483.47;;;22.75;96.02
23170;BME280;11753;43.144;24.714;2023-07-13T03:02:41;99480.56;;;22.77;95.38
23170;BME280;11753;43.144;24.714;2023-07-13T03:03:42;99491.66;;;22.80;95.57
23170;BME280;11753;43.144;24.714;2023-07-13T03:04:42;99505.53;;;22.89;95.63
23170;BME280;11753;43.144;24.714;2023-07-13T03:05:45;99469.13;;;22.70;95.53
23170;BME280;11753;43.144;24.714;2023-07-13T03:06:50;99480.91;;;22.80;95.27
23170;BME280;11753;43.144;24.714;2023-07-13T03:07:51;99501.34;;;22.93;94.99
23170;BME280;11753;43.144;24.714;2023-07-13T03:08:51;99464.81;;;22.69;94.92
23170;BME280;11753;43.144;24.714;2023-07-13T03:09:56;99494.00;;;22.89;94.80
23170;BME280;11753;43.144;24.714;2023-07-13T03:11:01;99468.13;;;22.59;94.74
23170;BME280;11753;43.144;24.714;2023-07-13T03:12:02;99479.50;;;22.78;94.83
23170;BME280;11753;43.144;24.714;2023-07-13T03:13:03;99487.44;;;22.85;94.50
23170;BME280;11753;43.144;24.714;2023-07-13T03:14:04;99506.34;;;22.90;94.55
23170;BME280;11753;43.144;24.714;2023-07-13T03:15:05;99489.28;;;22.84;94.16
23170;BME280;11753;43.144;24.714;2023-07-13T03:16:06;99482.31;;;22.83;94.27
23170;BME280;11753;43.144;24.714;2023-07-13T03:17:07;99498.41;;;22.95;94.18
23170;BME280;11753;43.144;24.714;2023-07-13T03:18:07;99500.19;;;22.89;94.33
23170;BME280;11753;43.144;24.714;2023-07-13T03:19:08;99507.84;;;22.97;94.55
23170;BME280;11753;43.144;24.714;2023-07-13T03:20:09;99469.81;;;22.77;94.01
23170;BME280;11753;43.144;24.714;2023-07-13T03:21:10;99497.25;;;22.79;94.32
23170;BME280;11753;43.144;24.714;2023-07-13T03:22:10;99489.78;;;22.81;94.18
23170;BME280;11753;43.144;24.714;2023-07-13T03:23:11;99498.78;;;22.87;93.84
23170;BME280;11753;43.144;24.714;2023-07-13T03:25:12;99467.75;;;22.67;93.88
23170;BME280;11753;43.144;24.714;2023-07-13T03:26:18;99488.38;;;22.90;93.53
23170;BME280;11753;43.144;24.714;2023-07-13T03:27:19;99487.19;;;22.98;93.16
23170;BME280;11753;43.144;24.714;2023-07-13T03:28:20;99487.31;;;22.91;92.45
23170;BME280;11753;43.144;24.714;2023-07-13T03:29:20;99494.31;;;22.92;93.34
23170;BME280;11753;43.144;24.714;2023-07-13T03:30:21;99485.47;;;22.92;92.97
23170;BME280;11753;43.144;24.714;2023-07-13T03:31:25;99491.88;;;23.02;93.11
23170;BME280;11753;43.144;24.714;2023-07-13T03:32:26;99465.06;;;22.79;92.47
23170;BME280;11753;43.144;24.714;2023-07-13T03:33:27;99493.06;;;22.95;92.44
23170;BME280;11753;43.144;24.714;2023-07-13T03:34:27;99478.00;;;22.94;92.34
23170;BME280;11753;43.144;24.714;2023-07-13T03:35:28;99487.06;;;23.04;91.80
23170;BME280;11753;43.144;24.714;2023-07-13T03:36:30;99497.53;;;23.18;91.78
23170;BME280;11753;43.144;24.714;2023-07-13T03:37:31;99504.06;;;23.22;91.28
23170;BME280;11753;43.144;24.714;2023-07-13T03:38:31;99481.56;;;23.11;90.81
23170;BME280;11753;43.144;24.714;2023-07-13T03:39:32;99495.44;;;23.20;90.59
23170;BME280;11753;43.144;24.714;2023-07-13T03:40:32;99491.00;;;23.14;90.70
23170;BME280;11753;43.144;24.714;2023-07-13T03:41:34;99491.22;;;23.24;90.66
23170;BME280;11753;43.144;24.714;2023-07-13T03:42:35;99478.75;;;23.18;90.11
23170;BME280;11753;43.144;24.714;2023-07-13T03:43:35;99477.38;;;23.15;90.42
23170;BME280;11753;43.144;24.714;2023-07-13T03:44:35;99485.84;;;23.24;89.97
23170;BME280;11753;43.144;24.714;2023-07-13T03:45:37;99471.19;;;23.15;90.35
23170;BME280;11753;43.144;24.714;2023-07-13T03:46:38;99480.81;;;23.27;90.22
23170;BME280;11753;43.144;24.714;2023-07-13T03:47:39;99492.47;;;23.33;89.65
23170;BME280;11753;43.144;24.714;2023-07-13T03:48:41;99492.56;;;23.38;89.24
23170;BME280;11753;43.144;24.714;2023-07-13T03:49:43;99493.25;;;23.45;89.79
23170;BME280;11753;43.144;24.714;2023-07-13T03:50:43;99487.88;;;23.45;88.86
23170;BME280;11753;43.144;24.714;2023-07-13T03:51:44;99476.84;;;23.30;88.65
23170;BME280;11753;43.144;24.714;2023-07-13T03:52:44;99503.03;;;23.51;88.98
23170;BME280;11753;43.144;24.714;2023-07-13T03:53:46;99500.91;;;23.53;88.79
23170;BME280;11753;43.144;24.714;2023-07-13T03:54:47;99485.25;;;23.50;88.32
23170;BME280;11753;43.144;24.714;2023-07-13T03:55:48;99501.22;;;23.57;87.87
23170;BME280;11753;43.144;24.714;2023-07-13T03:56:48;99487.38;;;23.48;88.15
23170;BME280;11753;43.144;24.714;2023-07-13T03:58:06;99467.34;;;23.39;88.02
23170;BME280;11753;43.144;24.714;2023-07-13T03:59:20;99495.53;;;23.53;87.84
23170;BME280;11753;43.144;24.714;2023-07-13T04:00:21;99503.50;;;23.48;88.75
23170;BME280;11753;43.144;24.714;2023-07-13T04:01:23;99504.16;;;23.55;88.75
23170;BME280;11753;43.144;24.714;2023-07-13T04:02:25;99508.09;;;23.65;88.76
23170;BME280;11753;43.144;24.714;2023-07-13T04:03:26;99501.13;;;23.64;87.89
23170;BME280;11753;43.144;24.714;2023-07-13T04:04:28;99507.09;;;23.66;87.80
23170;BME280;11753;43.144;24.714;2023-07-13T04:05:28;99490.97;;;23.66;87.92
23170;BME280;11753;43.144;24.714;2023-07-13T04:06:29;99493.25;;;23.74;87.15
23170;BME280;11753;43.144;24.714;2023-07-13T04:07:30;99493.25;;;23.74;86.88
23170;BME280;11753;43.144;24.714;2023-07-13T04:08:32;99503.09;;;23.85;86.48
23170;BME280;11753;43.144;24.714;2023-07-13T04:09:33;99515.41;;;23.98;86.34
23170;BME280;11753;43.144;24.714;2023-07-13T04:10:34;99517.28;;;23.97;86.27
23170;BME280;11753;43.144;24.714;2023-07-13T04:11:35;99504.50;;;24.04;85.89
23170;BME280;11753;43.144;24.714;2023-07-13T04:12:38;99507.53;;;24.08;85.16
23170;BME280;11753;43.144;24.714;2023-07-13T04:13:41;99500.84;;;24.10;85.20
23170;BME280;11753;43.144;24.714;2023-07-13T04:14:42;99496.53;;;24.09;84.82
23170;BME280;11753;43.144;24.714;2023-07-13T04:15:43;99480.31;;;24.04;84.68
23170;BME280;11753;43.144;24.714;2023-07-13T04:16:43;99504.03;;;24.24;84.33
23170;BME280;11753;43.144;24.714;2023-07-13T04:17:44;99509.16;;;24.26;84.33
23170;BME280;11753;43.144;24.714;2023-07-13T04:18:45;99498.75;;;24.29;84.25
23170;BME280;11753;43.144;24.714;2023-07-13T04:19:46;99480.94;;;24.28;83.94
23170;BME280;11753;43.144;24.714;2023-07-13T04:20:47;99515.53;;;24.53;83.37
23170;BME280;11753;43.144;24.714;2023-07-13T04:21:49;99503.44;;;24.56;82.76
23170;BME280;11753;43.144;24.714;2023-07-13T04:22:50;99494.25;;;24.52;82.50
23170;BME280;11753;43.144;24.714;2023-07-13T04:23:50;99503.19;;;24.57;81.88
23170;BME280;11753;43.144;24.714;2023-07-13T04:24:51;99516.25;;;24.65;81.97
23170;BME280;11753;43.144;24.714;2023-07-13T04:25:52;99508.66;;;24.62;82.64
23170;BME280;11753;43.144;24.714;2023-07-13T04:27:08;99471.69;;;24.36;81.30
23170;BME280;11753;43.144;24.714;2023-07-13T04:28:12;99512.91;;;24.58;81.41
23170;BME280;11753;43.144;24.714;2023-07-13T04:29:16;99500.31;;;24.64;81.41
23170;BME280;11753;43.144;24.714;2023-07-13T04:30:16;99476.22;;;24.52;81.24
23170;BME280;11753;43.144;24.714;2023-07-13T04:31:17;99508.47;;;24.69;81.31
23170;BME280;11753;43.144;24.714;2023-07-13T04:32:17;99520.50;;;24.83;81.02
23170;BME280;11753;43.144;24.714;2023-07-13T04:33:18;99496.84;;;24.85;80.26
23170;BME280;11753;43.144;24.714;2023-07-13T04:34:22;99496.00;;;24.80;80.40
23170;BME280;11753;43.144;24.714;2023-07-13T04:35:23;99492.84;;;24.88;79.80
23170;BME280;11753;43.144;24.714;2023-07-13T04:36:24;99497.81;;;24.96;79.46
23170;BME280;11753;43.144;24.714;2023-07-13T04:37:27;99517.28;;;25.03;79.37
23170;BME280;11753;43.144;24.714;2023-07-13T04:38:29;99530.88;;;25.13;78.84
23170;BME280;11753;43.144;24.714;2023-07-13T04:39:30;99514.44;;;25.10;78.86
23170;BME280;11753;43.144;24.714;2023-07-13T04:40:31;99511.66;;;25.05;78.05
23170;BME280;11753;43.144;24.714;2023-07-13T04:41:31;99516.13;;;25.16;78.09
23170;BME280;11753;43.144;24.714;2023-07-13T04:42:32;99511.47;;;25.11;78.03
23170;BME280;11753;43.144;24.714;2023-07-13T04:43:35;99521.56;;;25.21;78.13
23170;BME280;11753;43.144;24.714;2023-07-13T04:44:35;99515.69;;;25.24;77.80
23170;BME280;11753;43.144;24.714;2023-07-13T04:45:36;99512.78;;;25.31;76.97
23170;BME280;11753;43.144;24.714;2023-07-13T04:46:37;99523.50;;;25.25;77.90
23170;BME280;11753;43.144;24.714;2023-07-13T04:47:38;99520.91;;;25.36;77.29
23170;BME280;11753;43.144;24.714;2023-07-13T04:48:38;99528.56;;;25.44;77.13
23170;BME280;11753;43.144;24.714;2023-07-13T04:49:39;99503.94;;;25.35;77.22
23170;BME280;11753;43.144;24.714;2023-07-13T04:50:40;99523.19;;;25.44;76.84
23170;BME280;11753;43.144;24.714;2023-07-13T04:51:40;99507.97;;;25.33;76.41
23170;BME280;11753;43.144;24.714;2023-07-13T04:52:41;99514.59;;;25.47;76.57
23170;BME280;11753;43.144;24.714;2023-07-13T04:53:43;99528.41;;;25.56;76.41
23170;BME280;11753;43.144;24.714;2023-07-13T04:54:43;99500.03;;;25.48;76.18
23170;BME280;11753;43.144;24.714;2023-07-13T04:55:47;99503.34;;;25.55;76.17
23170;BME280;11753;43.144;24.714;2023-07-13T04:56:47;99524.44;;;25.63;75.22
23170;BME280;11753;43.144;24.714;2023-07-13T04:57:48;99517.97;;;25.64;75.45
23170;BME280;11753;43.144;24.714;2023-07-13T04:58:49;99525.88;;;25.71;75.39
23170;BME280;11753;43.144;24.714;2023-07-13T04:59:49;99518.56;;;25.66;75.08
23170;BME280;11753;43.144;24.714;2023-07-13T05:00:50;99529.19;;;25.78;74.74
23170;BME280;11753;43.144;24.714;2023-07-13T05:01:50;99531.16;;;25.83;74.88
23170;BME280;11753;43.144;24.714;2023-07-13T05:02:51;99510.59;;;25.76;74.53
23170;BME280;11753;43.144;24.714;2023-07-13T05:03:52;99515.28;;;25.86;74.25
23170;BME280;11753;43.144;24.714;2023-07-13T05:04:52;99508.84;;;25.92;73.95
23170;BME280;11753;43.144;24.714;2023-07-13T05:06:02;99521.16;;;26.10;73.92
23170;BME280;11753;43.144;24.714;2023-07-13T05:07:03;99519.53;;;26.14;73.65
23170;BME280;11753;43.144;24.714;2023-07-13T05:08:04;99514.47;;;26.18;73.12
23170;BME280;11753;43.144;24.714;2023-07-13T05:09:04;99518.25;;;26.22;73.04
23170;BME280;11753;43.144;24.714;2023-07-13T05:10:06;99523.19;;;26.30;72.99
23170;BME280;11753;43.144;24.714;2023-07-13T05:11:07;99512.38;;;26.25;73.00
23170;BME280;11753;43.144;24.714;2023-07-13T05:12:09;99528.38;;;26.37;72.80
23170;BME280;11753;43.144;24.714;2023-07-13T05:13:10;99511.00;;;26.22;72.44
23170;BME280;11753;43.144;24.714;2023-07-13T05:14:10;99525.03;;;26.24;72.98
23170;BME280;11753;43.144;24.714;2023-07-13T05:15:11;99512.09;;;26.26;73.14
23170;BME280;11753;43.144;24.714;2023-07-13T05:16:12;99529.00;;;26.44;72.69
23170;BME280;11753;43.144;24.714;2023-07-13T05:17:12;99513.50;;;26.34;72.96
23170;BME280;11753;43.144;24.714;2023-07-13T05:18:13;99519.50;;;26.41;72.21
23170;BME280;11753;43.144;24.714;2023-07-13T05:19:13;99529.28;;;26.47;72.37
23170;BME280;11753;43.144;24.714;2023-07-13T05:20:14;99507.41;;;26.44;72.19
23170;BME280;11753;43.144;24.714;2023-07-13T05:21:15;99528.03;;;26.60;72.07
23170;BME280;11753;43.144;24.714;2023-07-13T05:22:16;99530.19;;;26.63;71.75
23170;BME280;11753;43.144;24.714;2023-07-13T05:23:16;99496.63;;;26.49;70.74
23170;BME280;11753;43.144;24.714;2023-07-13T05:24:17;99508.84;;;26.61;71.07
23170;BME280;11753;43.144;24.714;2023-07-13T05:25:18;99526.53;;;26.79;71.42
23170;BME280;11753;43.144;24.714;2023-07-13T05:26:19;99509.25;;;26.80;71.22
23170;BME280;11753;43.144;24.714;2023-07-13T05:27:20;99529.31;;;27.00;70.85
23170;BME280;11753;43.144;24.714;2023-07-13T05:28:21;99523.38;;;27.03;70.52
23170;BME280;11753;43.144;24.714;2023-07-13T05:29:22;99488.22;;;26.93;69.86
23170;BME280;11753;43.144;24.714;2023-07-13T05:30:23;99509.94;;;27.13;69.77
23170;BME280;11753;43.144;24.714;2023-07-13T05:31:23;99535.41;;;27.32;69.36
23170;BME280;11753;43.144;24.714;2023-07-13T05:32:24;99523.56;;;27.38;68.82
23170;BME280;11753;43.144;24.714;2023-07-13T05:33:25;99499.44;;;27.22;68.06